Terminal Aerodrome Forecast
Issued by NWS Grand Forks, ND

Home | Current Version | Previous Version | Text Only | Print | Product List | Glossary Off
Versions: 1 2 3 4 5 6 7 8 9 10 11 12 13 14 15 16 17 18 19 20 21 22 23

000
FTUS43 KFGF 191607 AAB
TAFFAR
TAF AMD
KFAR 191607Z 1916/2012 14015G23KT P6SM BKN015 OVC025
     FM191700 15020G30KT P6SM BKN025
     FM191900 15023G34KT P6SM BKN035
     FM200000 14022G33KT P6SM TSRA OVC035CB
     FM200600 20015G23KT P6SM VCSH OVC025=

USA.gov is the U.S. government's official web portal to all federal, state and local government web resources and services.